Latest Coastal Weather Observations for Port Lincoln Airport

IDS60701

Issued at 1:01 pm CST Tuesday 28 June 2022 (issued every 10 minutes, with the page automatically refreshed every 10 minutes)

About coastal observations | Map of coastal stations | Coastal observations for SA | Marine services | Other Formats
Station Details ID: 018192 Name: PORT LINCOLN AWS Lat: -34.60 Lon: 135.88 Height: 8.5 m
Data from the previous 72 hours. | See also: Recent months at Port Lincoln Airport
Date/Time
CST
Wind Sea
Height
m
Swell Vis
km
Cloud Weather Temp
°C
Press
MSL
hPa
Rain since
9am
mm
Dir  Spd
kts
Gust
kts
Height
m
Period
s
Dir
28/01:00pm NNW 13 19 - - - - 10 - - 16.5 1025.4 0.0
28/12:30pm NNW 14 20 - - - - 10 - - 15.7 1026.0 0.0
28/12:00pm NW 13 18 - - - - 10 - - 15.4 1026.7 0.0
28/11:30am NNW 13 18 - - - - 10 - - 15.0 1027.0 0.0
28/11:00am NNW 15 20 - - - - 10 - - 13.8 1027.2 0.0
28/10:30am NNW 14 19 - - - - 10 - - 13.4 1027.6 0.0
28/10:00am NNW 15 21 - - - - 10 - - 12.7 1027.9 0.0
28/09:30am NNW 13 18 - - - - 10 - - 11.9 1028.0 0.0
28/09:00am NNW 14 17 - - - - 10 - - 10.6 1028.0 0.0
28/08:30am NNW 13 16 - - - - 10 - - 9.7 1028.0 0.0
28/08:00am NW 5 8 - - - - 10 - - 8.7 1028.0 0.0
28/07:30am NNW 1 4 - - - - 10 - - 7.5 1027.9 0.0
28/07:00am N 2 4 - - - - 10 - - 7.1 1027.7 0.0
28/06:30am N 3 6 - - - - 10 - - 6.5 1027.7 0.0
28/06:00am CALM 0 0 - - - - 10 - - 6.5 1027.6 0.0
28/05:30am N 5 7 - - - - 10 - - 6.9 1027.4 0.0
28/05:00am N 5 6 - - - - 10 - - 6.8 1027.5 0.0
28/04:30am N 9 11 - - - - 10 - - 6.7 1027.6 0.0
28/04:00am NNW 7 9 - - - - 10 - - 7.5 1027.8 0.0
28/03:30am N 4 7 - - - - 10 - - 5.8 1027.7 0.0
28/03:00am NW 3 8 - - - - 10 - - 5.4 1028.2 0.0
28/02:30am NNW 5 8 - - - - 10 - - 5.2 1028.6 0.0
28/02:00am NW 8 9 - - - - 10 - - 5.7 1028.7 0.0
28/01:30am NW 4 6 - - - - 10 - - 5.0 1029.1 0.0
28/01:00am WNW 6 7 - - - - 10 - - 5.5 1029.4 0.0
28/12:30am WNW 5 7 - - - - 10 - - 4.8 1029.9 0.0
28/12:00am NW 6 8 - - - - 10 - - 5.5 1030.1 0.0
 
Date/Time
CST
Wind Sea
Height
m
Swell Vis
km
Cloud Weather Temp
°C
Press
MSL
hPa
Rain since
9am
mm
Dir  Spd
kts
Gust
kts
Height
m
Period
s
Dir
27/11:30pm NW 7 8 - - - - 10 - - 6.6 1030.4 0.0
27/11:00pm NW 5 6 - - - - 10 - - 7.0 1030.6 0.0
27/10:30pm N 5 7 - - - - 10 - - 7.8 1030.6 0.0
27/10:00pm N 4 6 - - - - 10 - - 8.0 1031.0 0.0
27/09:30pm NNW 3 6 - - - - 10 - - 8.0 1031.7 0.0
27/09:00pm N 4 7 - - - - 10 - - 8.0 1032.0 0.0
27/08:30pm N 4 6 - - - - 10 - - 8.8 1032.0 0.0
27/08:00pm N 6 8 - - - - 10 - - 9.3 1032.2 0.0
27/07:30pm N 5 6 - - - - 10 - - 8.8 1032.3 0.0
27/07:00pm NNE 5 5 - - - - 10 - - 9.0 1032.2 0.0
27/06:30pm N 5 6 - - - - 10 - - 9.1 1032.2 0.0
27/06:00pm N 4 6 - - - - 10 - - 9.5 1032.0 0.0
27/05:30pm NE 7 9 - - - - 10 - - 10.8 1031.7 0.0
27/05:00pm NE 7 9 - - - - 10 - - 11.8 1031.8 0.0
27/04:30pm ENE 8 11 - - - - 10 - - 12.6 1032.1 0.0
27/04:00pm ENE 9 11 - - - - 10 - - 12.7 1032.1 0.0
27/03:30pm ENE 10 11 - - - - 10 - - 13.4 1032.1 0.0
27/03:00pm ENE 10 13 - - - - 10 - - 13.4 1032.5 0.0
27/02:30pm ENE 9 11 - - - - 10 - - 14.0 1032.7 0.0
27/02:00pm E 8 9 - - - - 10 - - 14.1 1033.0 0.0
27/01:30pm ENE 7 9 - - - - 10 - - 14.0 1033.3 0.0
27/01:00pm E 2 5 - - - - 10 - - 14.3 1033.7 0.0
27/12:30pm NE 4 6 - - - - 10 - - 14.2 1034.1 0.0
27/12:00pm NNW 6 8 - - - - 10 - - 14.2 1034.4 0.0
27/11:30am N 7 9 - - - - 10 - - 13.6 1035.0 0.0
27/11:00am NNW 7 9 - - - - 10 - - 13.4 1035.5 0.0
27/10:30am NNW 7 8 - - - - 10 - - 12.8 1035.7 0.0
27/10:00am NNW 7 8 - - - - 10 - - 11.9 1035.6 0.0
27/09:30am NNW 7 9 - - - - 10 - - 10.6 1035.5 0.0
27/09:00am NW 6 7 - - - - 10 - - 9.6 1035.0 0.4
27/08:30am NNW 5 7 - - - - 10 - - 7.9 1035.0 0.4
27/08:00am NW 7 8 - - - - 10 - - 5.6 1034.6 0.4
27/07:30am NW 8 9 - - - - 10 - - 5.8 1034.1 0.4
27/07:00am NW 7 9 - - - - 10 - - 5.8 1033.9 0.4
27/06:30am NW 9 9 - - - - 10 - - 5.9 1033.4 0.4
27/06:00am NW 7 9 - - - - 10 - - 5.4 1033.3 0.2
27/05:30am NW 9 10 - - - - 10 - - 5.4 1033.2 0.2
27/05:00am NW 7 8 - - - - 10 - - 5.0 1033.1 0.2
27/04:30am NW 7 9 - - - - 10 - - 5.5 1033.3 0.2
27/04:00am NW 6 7 - - - - 10 - - 5.2 1033.3 0.2
27/03:30am NW 8 9 - - - - 10 - - 5.7 1033.5 0.2
27/03:00am WNW 8 9 - - - - 10 - - 6.0 1033.5 0.2
27/02:30am NW 6 7 - - - - 10 - - 5.5 1033.6 0.2
27/02:00am NW 6 7 - - - - 10 - - 5.6 1033.8 0.2
27/01:30am NW 7 10 - - - - 10 - - 6.0 1033.5 0.2
27/01:00am NNW 6 7 - - - - 10 - - 5.3 1033.5 0.2
27/12:30am NW 6 6 - - - - 10 - - 5.4 1033.8 0.2
27/12:00am NW 6 6 - - - - 10 - - 6.5 1033.8 0.2
 
Date/Time
CST
Wind Sea
Height
m
Swell Vis
km
Cloud Weather Temp
°C
Press
MSL
hPa
Rain since
9am
mm
Dir  Spd
kts
Gust
kts
Height
m
Period
s
Dir
26/11:30pm NW 5 5 - - - - 10 - - 7.1 1033.6 0.2
26/11:00pm CALM 0 0 - - - - 10 - - 7.7 1033.5 0.2
26/10:30pm CALM 0 0 - - - - 10 - - 7.8 1033.3 0.2
26/10:00pm WSW 3 4 - - - - 10 - - 7.6 1033.1 0.2
26/09:30pm WSW 5 6 - - - - 10 - - 7.6 1033.2 0.2
26/09:00pm W 5 6 - - - - 10 - - 8.1 1032.8 0.2
26/08:30pm WSW 5 5 - - - - 10 - - 8.5 1032.6 0.2
26/08:00pm SW 3 4 - - - - 10 - - 10.4 1032.3 0.2
26/07:30pm SSW 4 4 - - - - 10 - - 11.1 1032.1 0.2
26/07:00pm SW 4 5 - - - - 10 - - 11.5 1031.8 0.2
26/06:30pm SW 5 6 - - - - 10 - - 11.2 1031.6 0.2
26/06:00pm SW 6 7 - - - - 10 - - 11.3 1031.3 0.2
26/05:30pm SSW 7 9 - - - - 10 - - 12.3 1030.8 0.2
26/05:00pm SSW 6 8 - - - - 10 - - 13.1 1030.4 0.2
26/04:30pm S 12 15 - - - - 10 - - 13.7 1030.2 0.2
26/04:00pm S 9 12 - - - - 10 Partly cloudy - 13.8 1029.9 0.2
26/03:30pm S 12 17 - - - - 10 Partly cloudy - 13.4 1029.8 0.0
26/03:00pm S 9 11 - - - - 10 Partly cloudy Rain 13.8 1029.5 0.0
26/02:30pm S 11 14 - - - - 10 Partly cloudy - 14.6 1029.1 0.0
26/02:00pm S 11 15 - - - - 10 Partly cloudy - 15.1 1029.1 0.0
26/01:30pm S 14 17 - - - - 10 Partly cloudy - 14.4 1028.9 0.0
26/01:00pm SW 13 17 - - - - 10 Partly cloudy - 15.9 1028.8 0.0
26/12:30pm SW 11 15 - - - - 10 Partly cloudy - 16.3 1028.9 0.0
26/12:00pm SSW 9 13 - - - - 10 Mostly cloudy Recent precip. 15.1 1029.2 0.0
26/11:30am WSW 10 15 - - - - 10 Partly cloudy - 14.5 1029.3 0.0
26/11:00am W 11 14 - - - - 10 Partly cloudy - 16.0 1029.0 0.0
26/10:30am WSW 9 11 - - - - 10 - - 15.3 1029.0 0.0
26/10:00am WSW 9 10 - - - - 10 Partly cloudy - 14.5 1029.0 0.0
26/09:30am W 8 11 - - - - 10 Partly cloudy - 13.6 1029.0 0.0
26/09:00am WNW 7 9 - - - - 10 Partly cloudy Rain 11.7 1028.6 2.4
26/08:30am NW 7 10 - - - - 10 Partly cloudy - 10.2 1027.9 2.4
26/08:00am W 12 16 - - - - 7 Partly cloudy - 11.3 1027.9 2.4
26/07:30am NW 10 11 - - - - 10 - - 8.6 1027.3 2.0
26/07:00am WNW 7 9 - - - - 10 Partly cloudy - 9.1 1027.3 2.0
26/06:30am WNW 6 7 - - - - 10 - - 8.0 1026.9 2.0
26/06:00am W 8 9 - - - - 10 - Recent precip. 8.9 1026.5 2.0
26/05:30am WNW 7 7 - - - - 10 - - 8.0 1026.2 2.0
26/05:00am NW 7 9 - - - - 10 Partly cloudy - 9.0 1025.9 1.8
26/04:30am NW 7 8 - - - - 10 - - 8.8 1025.6 1.8
26/04:00am NW 9 10 - - - - 10 - - 9.1 1025.6 1.8
26/03:30am NW 9 11 - - - - 10 Partly cloudy - 9.3 1025.6 1.8
26/03:00am NW 9 11 - - - - 10 - - 9.2 1025.4 1.8
26/02:30am NW 9 10 - - - - 10 - - 9.4 1025.4 1.8
26/02:00am NW 6 7 - - - - 10 - - 9.1 1025.5 1.8
26/01:30am NNW 4 6 - - - - 10 Partly cloudy - 9.6 1025.1 1.8
26/01:00am NW 6 7 - - - - 10 - - 10.1 1025.2 1.8
26/12:30am W 7 9 - - - - 10 Partly cloudy - 11.1 1025.1 1.8
26/12:00am WSW 6 8 - - - - 10 Partly cloudy Rain 10.8 1025.4 1.8
 
Date/Time
CST
Wind Sea
Height
m
Swell Vis
km
Cloud Weather Temp
°C
Press
MSL
hPa
Rain since
9am
mm
Dir  Spd
kts
Gust
kts
Height
m
Period
s
Dir
25/11:30pm W 7 11 - - - - 10 Partly cloudy - 11.7 1025.6 1.8
25/11:24pm W 7 11 - - - - 10 Partly cloudy - 11.7 1025.6 1.8
25/11:01pm W 5 11 - - - - 5 Partly cloudy - 11.4 1025.6 1.6
25/11:00pm WNW 4 11 - - - - 6 Partly cloudy - 11.3 1025.5 1.2
25/10:30pm NW 5 6 - - - - 10 Partly cloudy - 9.5 1025.0 0.4
25/10:00pm WNW 8 9 - - - - 10 - - 10.1 1025.0 0.4
25/09:30pm WNW 7 8 - - - - 10 - - 10.1 1024.8 0.4
25/09:00pm WNW 7 8 - - - - 10 Mostly clear Recent precip. 10.3 1024.6 0.4
25/08:30pm WNW 6 8 - - - - 10 Partly cloudy - 10.9 1024.4 0.2
25/08:00pm WSW 9 16 - - - - 10 Partly cloudy - 12.6 1024.3 0.2
25/07:30pm WNW 8 10 - - - - 10 Partly cloudy - 11.4 1024.0 0.2
25/07:00pm NW 8 10 - - - - 10 Partly cloudy - 11.0 1023.5 0.2
25/06:30pm WNW 8 9 - - - - 10 Partly cloudy - 11.6 1023.3 0.2
25/06:00pm WNW 7 8 - - - - 10 - - 11.6 1022.8 0.2
25/05:30pm WNW 7 9 - - - - 10 - - 12.5 1022.6 0.2
25/05:00pm WNW 10 14 - - - - 10 - - 14.5 1022.3 0.2
25/04:30pm W 11 15 - - - - 10 Partly cloudy - 15.6 1021.9 0.2
25/04:00pm W 13 18 - - - - 10 Partly cloudy - 16.5 1021.9 0.2
25/03:30pm W 11 18 - - - - 10 Partly cloudy - 16.7 1021.8 0.2
25/03:00pm WSW 12 16 - - - - 10 Cloudy Recent precip. 16.7 1021.8 0.2
25/02:30pm W 11 15 - - - - 10 Partly cloudy - 14.6 1022.0 0.2
25/02:00pm W 15 23 - - - - 10 Partly cloudy - 14.9 1022.1 0.2
25/01:30pm W 16 21 - - - - 10 - - 17.0 1022.0 0.2

Other formats

Comma delimited format used in spreadsheet applications
http://www.bom.gov.au/fwo/IDS60701/IDS60701.95661.axf

JavaScript Object Notation format (JSON) in row-major order
http://www.bom.gov.au/fwo/IDS60701/IDS60701.95661.json

Data quality

Most of these data are generated automatically and are frequently updated. Quality checks on data are not normally performed. It is possible for incorrect values to appear. Refer to information at About Latest Weather Observations and please check the disclaimer before using these data.